Latest Coastal Weather Observations for Cato Island

IDQ60701

Issued at 2:21 am EST Thursday 8 December 2016 (issued every 10 minutes, with the page automatically refreshed every 10 minutes)

About coastal observations | Map of coastal stations | Coastal observations for QLD | Marine services | Other Formats
Station Details ID: 200601 Name: CATO ISLAND Lat: -23.25 Lon: 155.54 Height: 6.3 m
Data from the previous 72 hours. | See also: Recent months for locations in Queensland
Date/Time
EST
Temp
°C
Wind Pressure Rain since
9am
mm
Weather Cloud Vis
km
Sea
Height
m
Swell
Dir  Spd
kts
Gust
kts
hPa Trend Height
m
Period
s
Dir
08/02:00am 24.5 ENE 6 7 1012.8 - - - - - - - - -
08/01:30am 24.3 NE 6 8 1013.1 - - - - - - - - -
08/01:00am 24.5 ENE 6 7 1013.4 - - - - - - - - -
08/12:30am 24.7 ENE 7 8 1013.5 - - - - - - - - -
08/12:00am 24.5 NE 8 10 1013.7 - - - - - - - - -
 
Date/Time
EST
Temp
°C
Wind Pressure Rain since
9am
mm
Weather Cloud Vis
km
Sea
Height
m
Swell
Dir  Spd
kts
Gust
kts
hPa Trend Height
m
Period
s
Dir
07/11:30pm 24.6 NNE 9 10 1014.0 - - - - - - - - -
07/11:00pm 24.8 NNE 11 13 1014.0 - - - - - - - - -
07/10:30pm 24.9 NNE 12 16 1013.9 - - - - - - - - -
07/10:00pm 24.9 NNE 12 15 1013.9 - - - - - - - - -
07/09:30pm 24.9 NE 12 13 1014.2 - - - - - - - - -
07/09:00pm 24.9 NNE 11 12 1014.0 - - - - - - - - -
07/08:30pm 25.0 NNE 15 18 1013.3 - - - - - - - - -
07/08:00pm 25.1 NNE 17 20 1013.0 - - - - - - - - -
07/07:30pm 25.2 NE 16 19 1013.0 - - - - - - - - -
07/07:00pm 25.3 NNE 15 17 1012.9 - - - - - - - - -
07/06:30pm 25.4 NE 15 17 1012.8 - - - - - - - - -
07/06:00pm 25.7 NE 14 16 1012.9 - - - - - - - - -
07/05:30pm 26.0 NE 12 14 1012.9 - - - - - - - - -
07/05:00pm 26.4 NE 10 12 1012.8 - - - - - - - - -
07/04:30pm 26.6 NE 10 12 1012.9 - - - - - - - - -
07/04:00pm 27.1 ENE 10 11 1012.7 - - - - - - - - -
07/03:30pm 26.9 E 9 11 1012.7 - - - - - - - - -
07/03:00pm 26.9 E 10 11 1013.0 - - - - - - - - -
07/02:30pm 27.3 E 9 10 1013.2 - - - - - - - - -
07/02:00pm 27.5 E 7 8 1013.3 - - - - - - - - -
07/01:30pm 28.1 E 6 7 1013.6 - - - - - - - - -
07/01:00pm 27.7 E 5 6 1014.0 - - - - - - - - -
07/12:30pm 27.8 SE 5 6 1014.1 - - - - - - - - -
07/12:00pm 27.6 ESE 6 8 1014.4 - - - - - - - - -
07/11:30am 28.1 SE 5 7 1014.7 - - - - - - - - -
07/11:00am 28.2 SSE 5 7 1014.9 - - - - - - - - -
07/10:30am 28.5 SSE 4 6 1015.1 - - - - - - - - -
07/10:00am 28.3 E 4 5 1015.0 - - - - - - - - -
07/09:30am 28.1 ENE 4 5 1015.2 - - - - - - - - -
07/09:00am 27.9 NNE 5 7 1014.9 - - - - - - - - -
07/08:30am 27.5 N 7 8 1015.0 - - - - - - - - -
07/08:00am 27.4 N 8 10 1014.9 - - - - - - - - -
07/07:30am 26.8 N 10 12 1014.8 - - - - - - - - -
07/07:00am 26.7 N 9 11 1014.7 - - - - - - - - -
07/06:30am 25.6 N 9 11 1014.2 - - - - - - - - -
07/06:00am 25.5 N 10 12 1013.8 - - - - - - - - -
07/05:30am 25.2 NE 11 13 1013.4 - - - - - - - - -
07/05:00am 24.7 ENE 11 13 1013.1 - - - - - - - - -
07/04:30am 24.6 NNE 11 13 1012.6 - - - - - - - - -
07/04:00am 24.5 NNE 12 14 1012.2 - - - - - - - - -
07/03:30am 24.5 NE 12 14 1012.1 - - - - - - - - -
07/03:00am 24.3 NE 10 12 1012.3 - - - - - - - - -
07/02:30am 24.4 NE 10 12 1012.5 - - - - - - - - -
07/02:00am 24.4 NE 13 15 1012.5 - - - - - - - - -
07/01:30am 24.4 NE 12 14 1012.8 - - - - - - - - -
07/01:00am 24.5 NE 14 17 1012.8 - - - - - - - - -
07/12:30am 24.4 NE 12 14 1013.2 - - - - - - - - -
07/12:00am 24.5 NE 14 17 1013.3 - - - - - - - - -
 
Date/Time
EST
Temp
°C
Wind Pressure Rain since
9am
mm
Weather Cloud Vis
km
Sea
Height
m
Swell
Dir  Spd
kts
Gust
kts
hPa Trend Height
m
Period
s
Dir
06/11:30pm 24.4 NE 16 19 1013.4 - - - - - - - - -
06/11:00pm 24.6 NE 16 20 1013.6 - - - - - - - - -
06/10:30pm 24.6 NE 17 19 1013.8 - - - - - - - - -
06/10:00pm 24.6 NE 15 19 1014.0 - - - - - - - - -
06/09:30pm 24.7 ENE 17 20 1014.3 - - - - - - - - -
06/09:00pm 24.9 ENE 15 18 1014.4 - - - - - - - - -
06/08:30pm 24.8 ENE 16 19 1014.3 - - - - - - - - -
06/08:00pm 24.8 ENE 15 18 1014.3 - - - - - - - - -
06/07:30pm 24.8 ENE 15 18 1014.2 - - - - - - - - -
06/07:00pm 24.8 ENE 15 18 1014.2 - - - - - - - - -
06/06:30pm 24.9 ENE 14 17 1014.1 - - - - - - - - -
06/06:00pm 25.0 ENE 15 17 1013.9 - - - - - - - - -
06/05:30pm 25.2 ENE 14 16 1013.6 - - - - - - - - -
06/05:00pm 25.5 ENE 13 16 1013.5 - - - - - - - - -
06/04:30pm 25.8 ENE 13 15 1013.4 - - - - - - - - -
06/04:00pm 26.0 ENE 13 16 1013.5 - - - - - - - - -
06/03:30pm 25.7 E 13 15 1013.5 - - - - - - - - -
06/03:00pm 26.1 E 13 14 1014.0 - - - - - - - - -
06/02:30pm 25.8 E 12 15 1014.5 - - - - - - - - -
06/02:00pm 25.9 E 12 14 1015.0 - - - - - - - - -
06/01:30pm 26.5 E 13 15 1015.1 - - - - - - - - -
06/01:00pm 26.2 E 13 15 1015.4 - - - - - - - - -
06/12:30pm 26.1 E 13 15 1015.8 - - - - - - - - -
06/12:00pm 26.3 E 12 14 1016.3 - - - - - - - - -
06/11:30am 26.1 E 13 15 1016.6 - - - - - - - - -
06/11:00am 25.7 ESE 12 14 1017.0 - - - - - - - - -
06/10:30am 26.6 E 11 14 1017.4 - - - - - - - - -
06/10:00am 26.2 E 12 14 1017.7 - - - - - - - - -
06/09:30am 26.3 E 11 13 1017.9 - - - - - - - - -
06/09:00am 25.9 E 11 13 1018.1 - - - - - - - - -
06/08:30am 26.3 ENE 11 14 1017.7 - - - - - - - - -
06/08:00am 25.7 ENE 11 14 1017.4 - - - - - - - - -
06/07:30am 25.8 ENE 13 15 1016.6 - - - - - - - - -
06/07:00am 25.1 ENE 13 16 1016.3 - - - - - - - - -
06/06:30am 25.3 ENE 13 16 1015.8 - - - - - - - - -
06/06:00am 24.7 NE 13 15 1015.6 - - - - - - - - -
06/05:30am 24.4 NE 14 16 1015.2 - - - - - - - - -
06/05:00am 23.8 NE 14 17 1014.8 - - - - - - - - -
06/04:30am 23.8 NE 14 16 1014.7 - - - - - - - - -
06/04:00am 24.0 NE 15 17 1014.8 - - - - - - - - -
06/03:30am 24.2 NE 17 19 1014.2 - - - - - - - - -
06/03:00am 24.2 ENE 16 20 1013.9 - - - - - - - - -
06/02:30am 24.3 ENE 16 19 1014.1 - - - - - - - - -
06/02:00am 24.2 NE 14 17 1014.2 - - - - - - - - -
06/01:30am 24.3 ENE 16 18 1014.4 - - - - - - - - -
06/01:00am 24.3 ENE 17 21 1014.7 - - - - - - - - -
06/12:30am 24.3 ENE 18 21 1014.9 - - - - - - - - -
06/12:00am 24.4 NE 17 19 1015.3 - - - - - - - - -
 
Date/Time
EST
Temp
°C
Wind Pressure Rain since
9am
mm
Weather Cloud Vis
km
Sea
Height
m
Swell
Dir  Spd
kts
Gust
kts
hPa Trend Height
m
Period
s
Dir
05/11:30pm 24.3 ENE 18 21 1015.8 - - - - - - - - -
05/11:00pm 24.3 ENE 17 21 1016.1 - - - - - - - - -
05/10:30pm 24.4 ENE 17 20 1016.3 - - - - - - - - -
05/10:00pm 24.6 ENE 16 19 1016.4 - - - - - - - - -
05/09:30pm 24.6 ENE 16 19 1016.3 - - - - - - - - -
05/09:00pm 24.5 ENE 15 17 1016.3 - - - - - - - - -
05/08:30pm 24.5 E 13 20 1016.2 - - - - - - - - -
05/08:00pm 24.5 E 14 16 1015.9 - - - - - - - - -
05/07:30pm 24.5 ENE 13 16 1015.6 - - - - - - - - -
05/07:00pm 24.4 E 13 16 1015.3 - - - - - - - - -
05/06:30pm 24.5 E 13 15 1015.1 - - - - - - - - -
05/06:00pm 24.6 E 13 16 1014.9 - - - - - - - - -
05/05:30pm 24.7 E 12 15 1014.8 - - - - - - - - -
05/05:00pm 24.8 E 11 13 1014.6 - - - - - - - - -
05/04:30pm 25.1 E 12 14 1014.4 - - - - - - - - -
05/04:00pm 25.3 E 10 13 1014.3 - - - - - - - - -
05/03:30pm 25.3 E 11 14 1014.1 - - - - - - - - -
05/03:00pm 25.9 E 11 13 1014.3 - - - - - - - - -
05/02:30pm 26.0 E 11 14 1014.6 - - - - - - - - -
05/02:00pm 26.6 E 10 12 1014.7 - - - - - - - - -
05/01:30pm 25.6 E 12 14 1015.0 - - - - - - - - -
05/01:00pm 26.4 E 10 11 1015.3 - - - - - - - - -
05/12:30pm 26.3 E 10 13 1015.4 - - - - - - - - -
05/12:00pm 27.1 ENE 10 11 1015.8 - - - - - - - - -
05/11:30am 26.6 ENE 10 11 1016.0 - - - - - - - - -
05/11:00am 27.2 ENE 11 13 1016.2 - - - - - - - - -
05/10:30am 26.7 ENE 11 14 1016.5 - - - - - - - - -
05/10:00am 26.8 ENE 10 14 1016.9 - - - - - - - - -
05/09:30am 26.4 ENE 12 13 1016.7 - - - - - - - - -
05/09:00am 26.3 ENE 12 14 1016.8 - - - - - - - - -
05/08:30am 25.6 E 12 15 1016.8 - - - - - - - - -
05/08:00am 25.5 E 11 13 1016.9 - - - - - - - - -
05/07:30am 25.3 ENE 12 14 1016.7 - - - - - - - - -
05/07:00am 25.1 E 14 16 1016.6 - - - - - - - - -
05/06:30am 24.7 ENE 10 12 1016.5 - - - - - - - - -
05/06:00am 25.0 E 12 14 1016.2 - - - - - - - - -
05/05:30am 24.6 E 13 16 1015.9 - - - - - - - - -
05/05:00am 24.5 ENE 14 16 1015.4 - - - - - - - - -
05/04:30am 24.3 ENE 14 16 1015.0 - - - - - - - - -
05/04:00am 24.3 ENE 15 17 1014.8 - - - - - - - - -
05/03:30am 24.4 ENE 16 19 1014.6 - - - - - - - - -
05/03:00am 24.2 E 16 20 1014.6 - - - - - - - - -
05/02:30am 24.4 ENE 15 18 1014.7 - - - - - - - - -

Other Formats:

Comma delimited format used in spreadsheet applications
http://www.bom.gov.au/fwo/IDQ60701/IDQ60701.94394.axf

JavaScript Object Notation format (JSON) in row-major order
http://www.bom.gov.au/fwo/IDQ60701/IDQ60701.94394.json